Airfield :
LOGIN :

Register | Disclaimer

   EN    FR    IT 

 










Legend :    VFR   Marginal VFR   IFR   Intensive IFR   Very Intensive IFR
Visi :
Ceiling :
>= 8 km
>= 3000ft
5 to 8 km
1000 to 3000 ft
1500m to 5 km
500 to 1000 ft
800 to 1500m
200 to 500 ft
< 800m
< 200 ft
Symbols :   Thunderstorms  Fog  Heavy snow  Heavy precipitations  Wind > 20 kt
SIGMETs :     Misc.  Thunderstorms  Icing  Turbulence  Mountain Waves  Volcanic Ashes






- Airport Elevation : 26 ft
- IATA code : GLA


EGPF - Glasgow

CURRENT METAR :
  • 271750Z AUTO 14006KT 110V190 9999 FEW035 09/06 Q1002

EXPIRED METARs :
  • 271720Z AUTO 14006KT 090V170 9999 -RA SCT035/// BKN045/// //////TCU 09/07 Q1002
  • 271650Z AUTO 16008KT 9999 BKN030/// //////CB 09/07 Q1002
  • 271620Z AUTO 13009KT 9999 -RA FEW025/// SCT031/// BKN043/// //////CB 09/07 Q1002
  • 271550Z AUTO 14008KT 100V180 9999 -RA SCT029/// SCT034/// BKN042/// //////CB 10/07 Q1002
  • 271520Z AUTO 12008KT 9999 SCT030/// //////TCU 10/06 Q1003

TAF TAF EGPF
Valid from the 27 at 18:00 until the 28 at 18:00 UTC


271656Z 2718/2818 17006KT 9999 SCT025
PROB30
TEMPO 2718/2722 6000 SHRA
TEMPO 2722/2806 6000 SHRA BKN014
PROB40
TEMPO 2806/2814 8000 BKN012
TEMPO 2814/2818 6000
PROB40 2815/2818 4000 BR MIFG
ATIS : +44 141 887 7449



MET'MAP, your aeronautical weather chart ! - Copyright ORBIFLY December 2007 - Disclaimer

ORBIFLY MET'MAP TEAM :

Programming & Development : Alexandra Zaïnal
Original concept : Baudouin d'Aumeries
Technical & hardware support : Manuel Goepfert
Assistance : Marc-Olivier Méhu




SOURCES & CREDITS :

   NOAA